Time;durP1;ratioP1;P1;durP2;ratioP2;P2;SDS_P1;SDS_P2;PMS_P1;PMS_P2;Temp;Humidity;BMP_temperature;BMP_pressure;BME280_temperature;BME280_humidity;BME280_pressure;Samples;Min_cycle;Max_cycle;Signal;HPM_P1;HPM_P2
2022/05/11 00:00:50;;;;;;;9.18;3.58;;;10.10;68.60;;;;;;1909007;75;21003;-56
2022/05/11 00:03:18;;;;;;;4.85;2.95;;;10.10;68.60;;;;;;1908550;75;21517;-55
2022/05/11 00:05:47;;;;;;;4.53;3.12;;;10.00;68.60;;;;;;1908959;75;21078;-55
2022/05/11 00:08:16;;;;;;;8.13;3.00;;;10.00;69.20;;;;;;1909037;75;21088;-56
2022/05/11 00:10:45;;;;;;;6.55;3.08;;;10.00;69.40;;;;;;1909022;75;21058;-55
2022/05/11 00:13:15;;;;;;;5.85;3.08;;;10.10;69.80;;;;;;1909065;75;21070;-55
2022/05/11 00:15:44;;;;;;;6.42;3.00;;;10.10;69.70;;;;;;1908914;75;21031;-56
2022/05/11 00:18:13;;;;;;;6.78;3.08;;;10.10;69.50;;;;;;1908613;75;21081;-56
2022/05/11 00:20:43;;;;;;;5.35;3.58;;;10.00;69.30;;;;;;1903941;74;21097;-55
2022/05/11 00:23:12;;;;;;;3.98;2.72;;;9.90;69.20;;;;;;1903952;75;21089;-55
2022/05/11 00:25:44;;;;;;;4.75;2.62;;;9.80;69.10;;;;;;1903967;75;21031;-55
2022/05/11 00:28:12;;;;;;;5.78;2.70;;;9.70;69.70;;;;;;1904093;75;21089;-56
2022/05/11 00:30:41;;;;;;;4.42;3.00;;;9.70;70.50;;;;;;1903829;75;21027;-55
2022/05/11 00:33:13;;;;;;;4.42;2.90;;;9.70;70.20;;;;;;1903899;75;21035;-56
2022/05/11 00:35:43;;;;;;;6.05;2.80;;;9.60;70.20;;;;;;1903966;75;21023;-56
2022/05/11 00:38:13;;;;;;;6.03;3.65;;;9.60;70.40;;;;;;1903916;74;21092;-55
2022/05/11 00:40:45;;;;;;;4.28;3.05;;;9.50;70.60;;;;;;1903846;75;21047;-56
2022/05/11 00:43:16;;;;;;;6.80;3.02;;;9.40;70.80;;;;;;1903872;74;21100;-56
2022/05/11 00:45:48;;;;;;;7.08;3.05;;;9.40;70.90;;;;;;1902019;75;21126;-56
2022/05/11 00:51:08;;;;;;;3.75;3.35;;;9.60;72.00;;;;;;1903992;75;21098;-56
2022/05/11 00:53:40;;;;;;;6.05;3.40;;;9.80;72.30;;;;;;1904135;75;21074;-56
2022/05/11 00:56:09;;;;;;;8.65;3.25;;;10.00;72.40;;;;;;1904004;75;21031;-56
2022/05/11 00:58:41;;;;;;;7.83;3.45;;;10.30;72.90;;;;;;1904156;75;21027;-56
2022/05/11 01:01:11;;;;;;;6.25;3.65;;;10.40;72.80;;;;;;1903844;74;21039;-55
2022/05/11 01:03:46;;;;;;;4.83;3.30;;;10.70;72.00;;;;;;1904098;75;21031;-56
2022/05/11 01:06:15;;;;;;;4.37;3.20;;;10.80;72.60;;;;;;1899143;75;21023;-56
2022/05/11 01:08:44;;;;;;;5.83;3.37;;;11.00;71.90;;;;;;1904035;75;21027;-56
2022/05/11 01:11:13;;;;;;;3.12;2.77;;;11.10;72.10;;;;;;1904029;75;21027;-56
2022/05/11 01:13:44;;;;;;;7.85;3.77;;;11.20;71.80;;;;;;1904041;75;21047;-56
2022/05/11 01:16:13;;;;;;;3.52;3.10;;;11.30;71.80;;;;;;1904124;75;21067;-56
2022/05/11 01:18:44;;;;;;;4.33;3.00;;;11.30;71.70;;;;;;1904000;75;21027;-56
2022/05/11 01:21:14;;;;;;;4.60;3.17;;;11.40;71.90;;;;;;1888053;76;21007;-56
2022/05/11 01:23:54;;;;;;;4.97;3.25;;;11.40;71.70;;;;;;1888072;76;21038;-56
2022/05/11 01:26:24;;;;;;;5.50;3.40;;;11.40;71.70;;;;;;1888322;76;21026;-56
2022/05/11 01:28:54;;;;;;;4.97;3.00;;;11.50;71.80;;;;;;1888117;76;21038;-56
2022/05/11 01:31:23;;;;;;;4.20;3.25;;;11.50;71.70;;;;;;1888085;76;21030;-56
2022/05/11 01:33:53;;;;;;;6.42;3.27;;;11.50;71.70;;;;;;1888080;76;21113;-56
2022/05/11 01:36:30;;;;;;;3.95;3.00;;;11.60;71.70;;;;;;1888200;76;21015;-56
2022/05/11 01:39:05;;;;;;;5.83;2.60;;;11.60;71.70;;;;;;1888117;76;21473;-56
2022/05/11 01:41:35;;;;;;;;;;;11.60;71.50;;;;;;1890905;76;21110;-56
2022/05/11 01:44:07;;;;;;;6.08;3.30;;;11.40;70.70;;;;;;1888032;76;20121;-56
2022/05/11 01:46:37;;;;;;;7.53;2.77;;;11.20;70.80;;;;;;1888076;76;21128;-56
2022/05/11 01:49:07;;;;;;;4.75;2.45;;;11.10;71.10;;;;;;1888090;76;21054;-56
2022/05/11 01:51:36;;;;;;;5.28;2.52;;;10.90;71.20;;;;;;1888195;76;21100;-56
2022/05/11 01:54:06;;;;;;;5.17;3.08;;;10.80;71.50;;;;;;1888106;76;21034;-56
2022/05/11 01:56:35;;;;;;;5.00;3.02;;;10.70;71.60;;;;;;1888167;76;21034;-56
2022/05/11 01:59:05;;;;;;;5.03;3.00;;;10.60;71.60;;;;;;1888126;76;21096;-56
2022/05/11 02:01:37;;;;;;;3.92;2.62;;;10.50;71.60;;;;;;1888155;76;21050;-56
2022/05/11 02:07:49;;;;;;;5.92;2.95;;;10.50;72.20;;;;;;1888074;76;21110;-56
2022/05/11 02:09:23;;;;;;;4.30;2.92;;;10.40;72.50;;;;;;1888306;76;21050;-56
2022/05/11 02:11:53;;;;;;;3.70;2.87;;;10.30;72.30;;;;;;1888093;76;21050;-56
2022/05/11 02:14:22;;;;;;;3.80;2.92;;;10.20;72.70;;;;;;1888097;76;21104;-56
2022/05/11 02:16:51;;;;;;;3.08;2.60;;;10.20;72.90;;;;;;1888178;76;21014;-56
2022/05/11 02:19:21;;;;;;;5.50;3.60;;;10.20;73.10;;;;;;1888078;75;21070;-55
2022/05/11 02:21:50;;;;;;;5.05;3.05;;;10.10;73.10;;;;;;1909048;75;21117;-56
2022/05/11 02:24:20;;;;;;;6.67;3.20;;;10.00;73.30;;;;;;1909043;75;21023;-56
2022/05/11 02:26:49;;;;;;;5.87;3.60;;;10.10;73.40;;;;;;1909004;75;21023;-56
2022/05/11 02:29:18;;;;;;;6.10;3.33;;;10.10;73.70;;;;;;1909165;75;21120;-56
2022/05/11 02:31:47;;;;;;;6.97;3.58;;;10.20;74.50;;;;;;1909118;75;21034;-56
2022/05/11 02:35:12;;;;;;;7.33;4.00;;;10.30;75.20;;;;;;1909103;75;21043;-56
2022/05/11 02:36:47;;;;;;;8.85;3.90;;;10.50;75.80;;;;;;1904687;75;21070;-56
2022/05/11 02:39:17;;;;;;;7.95;3.50;;;10.70;77.70;;;;;;1909072;75;21524;-56
2022/05/11 02:41:46;;;;;;;9.95;3.30;;;10.90;76.40;;;;;;1908894;75;21093;-56
2022/05/11 02:44:15;;;;;;;5.15;3.33;;;11.10;76.40;;;;;;1909017;75;21073;-56
2022/05/11 02:46:45;;;;;;;4.92;3.33;;;11.30;77.00;;;;;;1908946;75;21088;-56
2022/05/11 02:49:14;;;;;;;5.17;3.27;;;11.40;75.90;;;;;;1909147;75;21080;-56
2022/05/11 02:51:43;;;;;;;6.65;4.25;;;11.50;76.20;;;;;;1908997;75;21466;-56
2022/05/11 02:54:13;;;;;;;5.55;3.58;;;11.70;75.90;;;;;;1909132;75;21520;-56
2022/05/11 02:56:42;;;;;;;6.87;3.17;;;11.80;76.00;;;;;;1909099;75;21031;-56
2022/05/11 02:59:12;;;;;;;6.53;3.50;;;11.80;75.70;;;;;;1909025;75;21038;-56
2022/05/11 03:01:41;;;;;;;7.03;4.17;;;11.90;75.80;;;;;;1908898;75;21446;-56
2022/05/11 03:04:11;;;;;;;6.72;3.50;;;11.90;75.80;;;;;;1909052;75;21046;-56
2022/05/11 03:06:42;;;;;;;4.67;3.50;;;12.00;75.40;;;;;;1909023;75;21031;-56
2022/05/11 03:09:11;;;;;;;8.83;4.35;;;12.00;75.10;;;;;;1909027;75;21081;-56
2022/05/11 03:11:40;;;;;;;6.42;3.65;;;12.10;75.30;;;;;;1908928;75;21026;-56
2022/05/11 03:14:10;;;;;;;6.55;4.30;;;12.10;75.10;;;;;;1908942;75;21101;-56
2022/05/11 03:16:40;;;;;;;4.70;3.08;;;12.20;75.50;;;;;;1909124;75;21019;-55
2022/05/11 03:19:09;;;;;;;7.62;3.70;;;12.20;75.50;;;;;;1908987;75;21077;-56
2022/05/11 03:21:39;;;;;;;10.45;3.87;;;12.20;75.20;;;;;;1905392;75;21176;-56
2022/05/11 03:24:09;;;;;;;4.60;3.77;;;12.30;75.00;;;;;;1903893;74;21040;-56
2022/05/11 03:26:38;;;;;;;8.45;3.42;;;12.30;75.00;;;;;;1904033;75;21071;-56
2022/05/11 03:29:08;;;;;;;7.65;3.65;;;12.30;75.40;;;;;;1904046;75;21083;-56
2022/05/11 03:31:39;;;;;;;24.35;5.35;;;12.30;74.50;;;;;;1903909;75;21086;-56
2022/05/11 03:36:56;;;;;;;8.08;4.92;;;12.00;75.00;;;;;;1904036;75;21035;-56
2022/05/11 03:39:26;;;;;;;11.73;5.12;;;11.90;74.80;;;;;;1904101;75;21446;-56
2022/05/11 03:41:55;;;;;;;9.18;5.45;;;11.80;74.80;;;;;;1903888;75;21031;-56
2022/05/11 03:44:24;;;;;;;9.08;5.37;;;11.70;75.20;;;;;;1903916;75;21031;-56
2022/05/11 03:46:53;;;;;;;8.70;4.70;;;11.60;75.20;;;;;;1904089;75;21074;-56
2022/05/11 03:49:23;;;;;;;6.33;4.55;;;11.50;75.40;;;;;;1904021;75;21398;-57
2022/05/11 03:51:52;;;;;;;8.43;4.67;;;11.50;75.60;;;;;;1903926;75;21097;-57
2022/05/11 03:54:22;;;;;;;6.60;4.72;;;11.50;75.80;;;;;;1904007;75;21047;-57
2022/05/11 03:56:51;;;;;;;8.48;4.53;;;11.40;76.00;;;;;;1904021;75;21055;-56
2022/05/11 03:59:21;;;;;;;6.70;4.17;;;11.30;75.60;;;;;;1904052;75;21047;-55
2022/05/11 04:01:50;;;;;;;9.55;4.33;;;11.40;76.10;;;;;;1903869;75;21035;-56
2022/05/11 04:04:20;;;;;;;10.43;5.33;;;11.40;76.30;;;;;;1903848;75;21039;-56
2022/05/11 04:06:49;;;;;;;9.40;5.22;;;11.50;76.40;;;;;;1904113;75;21101;-56
2022/05/11 04:09:18;;;;;;;7.53;4.65;;;11.60;76.30;;;;;;1904003;75;21062;-56
2022/05/11 04:11:48;;;;;;;8.13;5.20;;;11.70;76.60;;;;;;1903931;75;21128;-56
2022/05/11 04:14:17;;;;;;;8.43;4.90;;;11.70;76.90;;;;;;1903857;75;21131;-56
2022/05/11 04:16:47;;;;;;;10.93;4.65;;;11.70;77.20;;;;;;1903901;75;21027;-56
2022/05/11 04:19:17;;;;;;;12.60;4.95;;;11.80;77.70;;;;;;1903984;75;21027;-55
2022/05/11 04:21:46;;;;;;;10.05;5.25;;;11.70;77.30;;;;;;1906460;75;21070;-56
2022/05/11 04:24:16;;;;;;;13.80;5.10;;;11.80;77.80;;;;;;1908843;75;21003;-56
2022/05/11 04:26:45;;;;;;;2.90;2.40;;;11.80;78.00;;;;;;1909063;75;21089;-56
2022/05/11 04:29:15;;;;;;;5.45;2.85;;;11.90;78.50;;;;;;1909202;75;21058;-55
2022/05/11 04:31:44;;;;;;;3.20;2.25;;;12.00;77.70;;;;;;1909365;75;21034;-56
2022/05/11 04:34:13;;;;;;;2.62;2.15;;;12.10;71.40;;;;;;1909306;75;21031;-55
2022/05/11 04:36:42;;;;;;;11.08;2.45;;;12.30;72.90;;;;;;1909089;75;21039;-56
2022/05/11 04:39:11;;;;;;;5.83;2.60;;;12.40;73.00;;;;;;1909148;75;21011;-55
2022/05/11 04:41:41;;;;;;;6.25;3.30;;;12.50;73.20;;;;;;1909109;75;21077;-56
2022/05/11 04:44:10;;;;;;;5.30;2.35;;;12.60;73.40;;;;;;1909164;75;21027;-56
2022/05/11 04:46:40;;;;;;;12.75;4.47;;;12.60;72.40;;;;;;1909182;75;21011;-56
2022/05/11 04:49:23;;;;;;;7.20;3.17;;;12.70;72.10;;;;;;1909126;75;21051;-56
2022/05/11 04:52:07;;;;;;;7.45;2.72;;;12.80;72.10;;;;;;1909109;75;21106;-56
2022/05/11 04:54:39;;;;;;;7.20;2.90;;;12.80;72.10;;;;;;1908704;75;21050;-56
2022/05/11 04:57:09;;;;;;;20.80;11.70;;;12.90;71.90;;;;;;1908658;75;21128;-56
2022/05/11 04:59:40;;;;;;;6.17;2.60;;;12.90;71.90;;;;;;1909154;75;21109;-56
2022/05/11 05:02:14;;;;;;;3.25;2.55;;;12.90;71.70;;;;;;1908991;75;21030;-56
2022/05/11 05:04:44;;;;;;;5.95;3.02;;;13.00;71.50;;;;;;1842927;78;21059;-56
2022/05/11 05:07:14;;;;;;;4.40;2.70;;;13.00;71.40;;;;;;1909076;75;21101;-56
2022/05/11 05:09:43;;;;;;;5.20;3.15;;;13.10;71.40;;;;;;1909130;75;21085;-56
2022/05/11 05:12:14;;;;;;;4.90;2.70;;;13.10;71.30;;;;;;1909011;75;21085;-56
2022/05/11 05:14:43;;;;;;;9.28;2.47;;;13.20;71.10;;;;;;1909049;75;21031;-56
2022/05/11 05:17:13;;;;;;;9.03;3.45;;;13.30;70.90;;;;;;1909009;75;21121;-56
2022/05/11 05:19:45;;;;;;;4.30;2.52;;;13.40;70.80;;;;;;1908985;75;21031;-56
2022/05/11 05:22:15;;;;;;;4.20;2.27;;;13.40;70.50;;;;;;1909079;75;21043;-58
2022/05/11 05:24:45;;;;;;;8.20;2.52;;;13.50;70.10;;;;;;1908961;75;21023;-59
2022/05/11 05:27:16;;;;;;;5.72;3.30;;;13.50;69.60;;;;;;1909097;75;21027;-58
2022/05/11 05:32:38;;;;;;;8.93;2.92;;;13.60;69.50;;;;;;1908975;75;21067;-56
2022/05/11 05:35:09;;;;;;;7.37;2.83;;;13.70;69.50;;;;;;1909109;75;21092;-57
2022/05/11 05:37:39;;;;;;;12.00;3.77;;;13.80;69.40;;;;;;1908925;75;21074;-56
2022/05/11 05:40:08;;;;;;;5.67;2.98;;;13.90;69.20;;;;;;1909016;75;21082;-57
2022/05/11 05:42:38;;;;;;;5.58;2.55;;;14.00;69.60;;;;;;1908950;75;21031;-56
2022/05/11 05:45:08;;;;;;;5.58;2.75;;;14.00;68.70;;;;;;1909014;75;21035;-56
2022/05/11 05:47:38;;;;;;;5.00;2.67;;;14.10;68.30;;;;;;1909033;75;21035;-56
2022/05/11 05:50:08;;;;;;;3.15;2.40;;;14.20;68.30;;;;;;1908942;75;21094;-57
2022/05/11 05:52:38;;;;;;;7.53;2.77;;;14.30;67.90;;;;;;1909138;75;21031;-56
2022/05/11 05:55:08;;;;;;;4.42;2.67;;;14.30;67.60;;;;;;1909066;75;21031;-56
2022/05/11 05:57:37;;;;;;;7.83;2.60;;;14.40;66.70;;;;;;1909031;75;21007;-56
2022/05/11 06:00:07;;;;;;;6.92;2.85;;;14.50;66.90;;;;;;1909035;75;21027;-56
2022/05/11 06:02:37;;;;;;;4.83;2.67;;;14.60;66.30;;;;;;1908940;75;21023;-56
2022/05/11 06:05:06;;;;;;;41.80;7.53;;;14.70;65.40;;;;;;1909027;75;21121;-57
2022/05/11 06:07:36;;;;;;;4.22;2.50;;;14.80;65.30;;;;;;1909152;75;21019;-56
2022/05/11 06:10:06;;;;;;;4.15;2.95;;;14.90;64.70;;;;;;1909085;75;21034;-57
2022/05/11 06:12:35;;;;;;;4.78;2.85;;;15.00;63.80;;;;;;1908988;75;21035;-57
2022/05/11 06:15:05;;;;;;;3.08;2.65;;;15.10;63.20;;;;;;1908881;75;21147;-56
2022/05/11 06:17:35;;;;;;;3.12;2.30;;;15.10;61.80;;;;;;1908654;75;21031;-56
2022/05/11 06:20:08;;;;;;;6.95;3.17;;;15.20;61.80;;;;;;1908683;75;21134;-56
2022/05/11 06:22:36;;;;;;;6.25;2.80;;;15.20;60.30;;;;;;1908594;75;21078;-56
2022/05/11 06:25:07;;;;;;;5.33;2.85;;;15.30;59.50;;;;;;1908601;75;21038;-56
2022/05/11 06:27:36;;;;;;;8.45;2.92;;;15.20;59.70;;;;;;1908650;75;21023;-56
2022/05/11 06:30:06;;;;;;;8.33;3.12;;;15.30;60.00;;;;;;1908552;75;21023;-56
2022/05/11 06:32:36;;;;;;;10.25;2.77;;;15.40;58.30;;;;;;1908722;75;21022;-56
2022/05/11 06:35:06;;;;;;;3.50;2.33;;;15.50;58.20;;;;;;1908607;75;21085;-56
2022/05/11 06:37:36;;;;;;;8.58;3.05;;;15.60;57.40;;;;;;1908711;75;21462;-56
2022/05/11 06:40:06;;;;;;;7.45;2.98;;;15.60;57.70;;;;;;1908586;75;21523;-56
2022/05/11 06:42:36;;;;;;;10.25;2.95;;;15.70;58.60;;;;;;1908799;75;21100;-56
2022/05/11 06:45:06;;;;;;;3.72;2.67;;;15.80;58.40;;;;;;1909073;75;21101;-56
2022/05/11 06:47:35;;;;;;;3.25;2.42;;;15.90;58.40;;;;;;1909094;75;21039;-56
2022/05/11 06:50:05;;;;;;;8.45;2.47;;;16.00;57.50;;;;;;1909035;75;21011;-56
2022/05/11 06:52:34;;;;;;;5.08;3.10;;;16.10;56.80;;;;;;1909032;75;21097;-56
2022/05/11 07:00:38;;;;;;;7.30;2.62;;;16.40;56.40;;;;;;1908960;75;21034;-56
2022/05/11 07:03:08;;;;;;;8.75;3.10;;;16.50;56.00;;;;;;1908900;75;21038;-56
2022/05/11 07:05:37;;;;;;;7.53;2.67;;;16.70;56.20;;;;;;1909034;75;21085;-56
2022/05/11 07:08:07;;;;;;;2.40;2.20;;;16.70;56.10;;;;;;1909095;75;21540;-56
2022/05/11 07:12:17;;;;;;;4.35;2.35;;;16.90;55.90;;;;;;1909041;75;21093;-56
2022/05/11 07:13:12;;;;;;;6.28;3.08;;;17.00;55.70;;;;;;1904812;75;21027;-57
2022/05/11 07:15:41;;;;;;;3.05;2.17;;;17.10;55.30;;;;;;1908921;75;21251;-56
2022/05/11 07:18:11;;;;;;;4.33;2.72;;;17.10;54.50;;;;;;1909072;75;21085;-56
2022/05/11 07:20:40;;;;;;;4.58;2.08;;;17.10;55.00;;;;;;1909057;75;21139;-56
2022/05/11 07:23:10;;;;;;;3.77;2.65;;;17.10;54.80;;;;;;1908936;75;21086;-57
2022/05/11 07:25:39;;;;;;;6.37;2.72;;;17.20;54.20;;;;;;1908897;75;21019;-56
2022/05/11 07:28:08;;;;;;;5.12;2.27;;;17.30;54.10;;;;;;1909009;75;21168;-55
2022/05/11 07:30:39;;;;;;;3.37;2.40;;;17.30;54.60;;;;;;1908742;75;21497;-55
2022/05/11 07:33:08;;;;;;;4.62;2.40;;;17.40;55.00;;;;;;1908896;75;21007;-56
2022/05/11 07:35:38;;;;;;;6.15;2.52;;;17.40;54.90;;;;;;1909012;75;21023;-56
2022/05/11 07:38:09;;;;;;;4.53;2.20;;;17.40;54.60;;;;;;1908788;75;21046;-56
2022/05/11 07:40:39;;;;;;;6.58;2.80;;;17.40;54.30;;;;;;1908955;75;21051;-56
2022/05/11 07:43:09;;;;;;;5.80;2.77;;;17.50;54.20;;;;;;1908937;75;21015;-56
2022/05/11 07:45:40;;;;;;;4.50;2.22;;;17.50;54.40;;;;;;1909032;75;21105;-56
2022/05/11 07:48:09;;;;;;;6.47;2.20;;;17.50;53.70;;;;;;1913546;74;21169;-55
2022/05/11 07:50:39;;;;;;;4.42;2.12;;;17.50;50.60;;;;;;1906903;74;21462;-55
2022/05/11 07:53:08;;;;;;;4.42;2.60;;;17.50;51.60;;;;;;1902154;75;21090;-55
2022/05/11 07:55:37;;;;;;;7.62;2.60;;;17.60;51.60;;;;;;1902110;75;21032;-55
2022/05/11 08:00:54;;;;;;;2.45;1.80;;;17.70;50.80;;;;;;1904072;74;21052;-55
2022/05/11 08:03:24;;;;;;;5.40;2.15;;;17.70;48.40;;;;;;1905521;74;21071;-56
2022/05/11 08:05:53;;;;;;;6.67;2.10;;;17.80;48.90;;;;;;1905185;75;21015;-56
2022/05/11 08:08:23;;;;;;;3.27;2.12;;;17.90;47.60;;;;;;1903618;75;21016;-56
2022/05/11 08:11:03;;;;;;;7.35;2.65;;;18.00;48.30;;;;;;1907903;74;21031;-55
2022/05/11 08:13:39;;;;;;;4.78;1.95;;;18.10;48.50;;;;;;1902634;75;21031;-56
2022/05/11 08:16:10;;;;;;;5.00;2.25;;;18.20;47.90;;;;;;1907351;74;21044;-55
2022/05/11 08:18:41;;;;;;;7.75;2.20;;;18.20;45.00;;;;;;1903559;75;21063;-56
2022/05/11 08:21:13;;;;;;;6.72;2.75;;;18.30;43.40;;;;;;1906857;74;21060;-55
2022/05/11 08:23:45;;;;;;;3.83;2.65;;;18.20;44.10;;;;;;1908083;74;21060;-57
2022/05/11 08:26:14;;;;;;;3.80;1.92;;;18.40;45.20;;;;;;1919344;74;21560;-56
2022/05/11 08:28:44;;;;;;;9.68;2.95;;;18.40;45.00;;;;;;1919905;74;21082;-55
2022/05/11 08:34:00;;;;;;;3.50;2.10;;;18.60;44.40;;;;;;1925878;74;21063;-55
2022/05/11 08:36:30;;;;;;;3.67;2.17;;;18.70;43.20;;;;;;1918636;74;21128;-53
2022/05/11 08:39:01;;;;;;;9.05;2.02;;;18.90;42.80;;;;;;1918150;73;21581;-51
2022/05/11 08:41:52;;;;;;;3.75;1.52;;;19.00;41.60;;;;;;1913481;75;21025;-56
2022/05/11 08:44:32;;;;;;;4.78;2.00;;;19.00;40.90;;;;;;1916758;74;21184;-56
2022/05/11 08:47:32;;;;;;;5.45;1.70;;;19.00;42.10;;;;;;1914098;75;21133;-53
2022/05/11 08:50:09;;;;;;;3.75;1.62;;;19.10;42.70;;;;;;1914396;74;21036;-52
2022/05/11 08:52:54;;;;;;;10.00;1.92;;;19.30;41.70;;;;;;1913449;75;21367;-54
2022/05/11 08:55:49;;;;;;;3.92;1.55;;;19.30;40.50;;;;;;1912534;75;21525;-56
2022/05/11 08:58:31;;;;;;;3.27;1.70;;;19.30;40.10;;;;;;1914213;75;21239;-52
2022/05/11 09:01:01;;;;;;;6.92;1.82;;;19.20;40.00;;;;;;1914122;75;21149;-55
2022/05/11 09:03:36;;;;;;;14.20;2.83;;;19.10;40.70;;;;;;1914045;75;21157;-55
2022/05/11 09:06:08;;;;;;;8.38;2.10;;;19.00;40.70;;;;;;1914250;75;21096;-55
2022/05/11 09:08:39;;;;;;;3.47;2.12;;;18.90;40.30;;;;;;1914007;75;21071;-56
2022/05/11 09:11:10;;;;;;;3.25;1.92;;;18.90;41.00;;;;;;1914071;75;21032;-55
2022/05/11 09:13:46;;;;;;;5.62;2.10;;;18.90;40.50;;;;;;1914046;75;21553;-54
2022/05/11 09:16:24;;;;;;;4.95;1.92;;;18.90;39.30;;;;;;1913543;75;21157;-56
2022/05/11 09:18:54;;;;;;;5.25;2.00;;;18.90;38.60;;;;;;1912867;75;21502;-53
2022/05/11 09:21:32;;;;;;;9.25;2.35;;;19.00;39.40;;;;;;1914091;75;21087;-57
2022/05/11 09:24:21;;;;;;;3.37;1.90;;;19.10;39.10;;;;;;1914008;75;21063;-57
2022/05/11 09:27:05;;;;;;;4.42;1.72;;;19.20;39.00;;;;;;1901864;75;21123;-56
2022/05/11 09:29:39;;;;;;;4.05;2.25;;;19.10;38.70;;;;;;1901387;75;21082;-56
2022/05/11 09:32:20;;;;;;;3.95;1.42;;;19.00;38.90;;;;;;1901597;75;21588;-55
2022/05/11 09:34:50;;;;;;;4.03;2.05;;;19.00;39.20;;;;;;1900886;75;21095;-55
2022/05/11 09:37:36;;;;;;;2.33;1.47;;;19.00;40.30;;;;;;1901390;75;21024;-56
2022/05/11 09:40:17;;;;;;;4.20;2.40;;;18.90;40.80;;;;;;1901439;75;21032;-56
2022/05/11 09:42:55;;;;;;;7.40;2.72;;;18.80;41.00;;;;;;1902192;75;21032;-57
2022/05/11 09:45:39;;;;;;;7.80;1.98;;;18.70;41.00;;;;;;1901957;75;21524;-56
2022/05/11 09:48:14;;;;;;;4.60;1.90;;;18.60;41.10;;;;;;1902482;75;21194;-56
2022/05/11 09:50:43;;;;;;;;;;;18.50;40.90;;;;;;1904242;75;21033;-56
2022/05/11 09:53:27;;;;;;;5.97;2.17;;;18.50;41.10;;;;;;1902020;75;20341;-56
2022/05/11 09:55:56;;;;;;;5.12;2.30;;;18.60;42.00;;;;;;1902081;75;21086;-56
2022/05/11 09:58:35;;;;;;;4.67;1.87;;;18.70;41.70;;;;;;1902141;75;21021;-56
2022/05/11 10:01:10;;;;;;;4.25;1.87;;;18.60;39.80;;;;;;1902071;75;21098;-56
2022/05/11 10:03:45;;;;;;;6.30;1.95;;;18.50;34.80;;;;;;1902207;75;21557;-57
2022/05/11 10:06:18;;;;;;;5.20;1.75;;;18.40;37.20;;;;;;1902066;75;21029;-56
2022/05/11 10:08:48;;;;;;;6.35;1.55;;;18.40;36.50;;;;;;1902025;75;21028;-56
2022/05/11 10:11:36;;;;;;;4.00;2.35;;;18.30;36.20;;;;;;1902141;75;21029;-56
2022/05/11 10:23:02;;;;;;;5.15;2.12;;;18.70;39.80;;;;;;1902018;75;21114;-58
2022/05/11 10:25:40;;;;;;;11.25;2.45;;;18.80;40.30;;;;;;1902252;75;21112;-56
2022/05/11 10:28:38;;;;;;;5.08;2.10;;;18.90;40.20;;;;;;1902257;75;21107;-55
2022/05/11 10:31:44;;;;;;;4.22;1.92;;;19.00;40.50;;;;;;1839301;75;21050;-53
2022/05/11 10:34:22;;;;;;;5.50;3.33;;;19.10;40.30;;;;;;1827911;78;21118;-57
2022/05/11 10:37:15;;;;;;;3.62;2.58;;;19.30;39.80;;;;;;1901806;75;21076;-58
2022/05/11 10:40:17;;;;;;;5.92;2.47;;;19.50;39.60;;;;;;1901982;75;21032;-58
2022/05/11 10:42:51;;;;;;;4.97;2.33;;;19.40;39.60;;;;;;1902077;75;21048;-58
2022/05/11 10:45:26;;;;;;;3.55;1.98;;;19.40;39.60;;;;;;1898096;75;21538;-58
2022/05/11 10:48:16;;;;;;;6.70;1.90;;;19.30;38.50;;;;;;1902153;75;21533;-56
2022/05/11 10:51:05;;;;;;;9.50;2.52;;;19.20;38.40;;;;;;1901375;75;21549;-55
2022/05/11 10:53:43;;;;;;;2.45;1.92;;;19.20;39.20;;;;;;1901981;75;21115;-55
2022/05/11 10:56:21;;;;;;;4.90;2.25;;;19.40;39.30;;;;;;1902177;75;21158;-55
2022/05/11 10:59:02;;;;;;;7.92;1.77;;;19.50;38.40;;;;;;1901665;75;21029;-55
2022/05/11 11:01:46;;;;;;;10.78;2.22;;;19.50;37.40;;;;;;1901931;75;21056;-56
2022/05/11 11:04:44;;;;;;;5.20;2.17;;;19.40;37.50;;;;;;1901539;75;21048;-57
2022/05/11 11:07:22;;;;;;;9.48;1.98;;;19.20;37.90;;;;;;1901785;75;21098;-57
2022/05/11 11:10:24;;;;;;;7.58;3.00;;;19.10;38.50;;;;;;1827877;78;21540;-57
2022/05/11 11:13:17;;;;;;;4.22;1.92;;;19.00;38.90;;;;;;1902165;75;21032;-57
2022/05/11 11:15:47;;;;;;;4.22;2.55;;;18.90;38.90;;;;;;1902189;75;21052;-57
2022/05/11 11:18:19;;;;;;;6.28;2.15;;;18.70;39.20;;;;;;1902218;75;21114;-57
2022/05/11 11:20:50;;;;;;;5.55;2.50;;;18.70;39.30;;;;;;1902246;75;21028;-57
2022/05/11 11:23:22;;;;;;;3.45;2.20;;;18.70;39.60;;;;;;1902038;75;21044;-57
2022/05/11 11:25:54;;;;;;;4.65;2.22;;;18.60;39.50;;;;;;1901988;75;21032;-57
2022/05/11 11:28:29;;;;;;;4.17;2.27;;;18.50;39.60;;;;;;1902143;75;21024;-57
2022/05/11 11:31:04;;;;;;;6.17;2.03;;;18.50;39.80;;;;;;1902338;75;21083;-57
2022/05/11 11:33:35;;;;;;;11.73;2.83;;;18.50;39.90;;;;;;1902119;75;21029;-57
2022/05/11 11:36:19;;;;;;;4.20;2.50;;;18.50;40.40;;;;;;1902039;75;21001;-57
2022/05/11 11:38:51;;;;;;;6.80;2.55;;;18.40;40.40;;;;;;1900775;75;21053;-56
2022/05/11 11:41:28;;;;;;;7.25;1.87;;;18.50;40.70;;;;;;1902265;75;21025;-56
2022/05/11 11:43:55;;;;;;;;;;;18.60;41.00;;;;;;1904627;75;21005;-56
2022/05/11 11:46:42;;;;;;;3.92;2.02;;;18.80;39.20;;;;;;1902092;75;20111;-57
2022/05/11 11:49:14;;;;;;;7.70;2.83;;;19.00;40.10;;;;;;1828231;78;21537;-56
2022/05/11 11:51:58;;;;;;;4.87;2.50;;;19.20;39.70;;;;;;1898438;75;21110;-57
2022/05/11 11:54:43;;;;;;;12.18;2.42;;;19.30;39.50;;;;;;1902154;75;21065;-57
2022/05/11 11:57:23;;;;;;;7.43;2.33;;;19.40;39.00;;;;;;1902385;75;21086;-56
2022/05/11 11:59:56;;;;;;;2.58;1.95;;;19.50;38.70;;;;;;1902094;75;21048;-57
2022/05/11 12:02:37;;;;;;;18.60;2.90;;;19.60;38.50;;;;;;1901969;75;21029;-57
2022/05/11 12:05:32;;;;;;;5.42;2.20;;;19.70;38.20;;;;;;1902032;75;21548;-57
2022/05/11 12:16:59;;;;;;;10.85;3.62;;;19.40;37.90;;;;;;1902154;75;21100;-57
2022/05/11 12:19:31;;;;;;;8.55;3.08;;;19.20;38.30;;;;;;1901975;75;21021;-57
2022/05/11 12:22:12;;;;;;;8.85;2.72;;;19.10;38.80;;;;;;1902027;75;21149;-56
2022/05/11 12:24:44;;;;;;;7.85;2.10;;;19.00;39.30;;;;;;1902047;75;21149;-56
2022/05/11 12:27:16;;;;;;;3.27;2.05;;;18.80;39.40;;;;;;1911390;74;21172;-56
2022/05/11 12:29:59;;;;;;;6.10;3.15;;;18.70;39.30;;;;;;1916321;74;21019;-56
2022/05/11 12:32:40;;;;;;;6.80;2.67;;;18.50;41.40;;;;;;1924507;74;21031;-56
2022/05/11 12:35:11;;;;;;;9.88;3.52;;;18.30;42.20;;;;;;1924550;74;21039;-56
2022/05/11 12:37:41;;;;;;;4.20;2.00;;;18.00;43.00;;;;;;1924524;74;21168;-57
2022/05/11 12:40:13;;;;;;;10.85;2.47;;;17.90;43.70;;;;;;1924500;74;21032;-56
2022/05/11 12:42:46;;;;;;;12.53;2.95;;;17.70;44.70;;;;;;1924476;74;21105;-56
2022/05/11 12:45:18;;;;;;;10.90;3.37;;;17.60;45.40;;;;;;1924709;74;21073;-56
2022/05/11 12:47:53;;;;;;;7.05;3.15;;;17.60;46.00;;;;;;1923378;74;21047;-55
2022/05/11 12:50:28;;;;;;;14.75;3.65;;;17.60;46.30;;;;;;1924137;74;21090;-56
2022/05/11 12:53:06;;;;;;;6.10;2.80;;;17.80;46.10;;;;;;1923916;74;21474;-56
2022/05/11 12:55:37;;;;;;;10.03;2.90;;;17.80;45.50;;;;;;1924756;74;21035;-56
2022/05/11 12:58:06;;;;;;;5.65;2.83;;;18.00;45.30;;;;;;1924701;74;21048;-56
2022/05/11 13:00:37;;;;;;;5.90;2.50;;;18.20;45.50;;;;;;1924677;74;21438;-56
2022/05/11 13:03:24;;;;;;;5.05;3.17;;;18.50;45.70;;;;;;1924688;74;21007;-56
2022/05/11 13:05:56;;;;;;;5.37;2.12;;;18.70;44.90;;;;;;1924393;74;21557;-56
2022/05/11 13:08:27;;;;;;;4.92;2.10;;;19.00;43.40;;;;;;1924791;74;21074;-56
2022/05/11 13:10:57;;;;;;;17.35;3.17;;;19.10;43.80;;;;;;1924636;74;21028;-56
2022/05/11 13:13:31;;;;;;;4.47;2.45;;;19.30;43.00;;;;;;1924615;74;21023;-56
2022/05/11 13:16:09;;;;;;;6.58;2.10;;;19.40;42.30;;;;;;1924569;74;21023;-56
2022/05/11 13:18:38;;;;;;;7.22;2.33;;;19.40;41.90;;;;;;1924585;74;21031;-56
2022/05/11 13:21:09;;;;;;;10.70;2.50;;;19.40;41.70;;;;;;1924544;74;21032;-56
2022/05/11 13:23:40;;;;;;;3.75;2.37;;;19.30;41.80;;;;;;1924589;74;21040;-56
2022/05/11 13:26:12;;;;;;;3.45;2.10;;;19.30;41.80;;;;;;1924590;74;21019;-56
2022/05/11 13:28:46;;;;;;;4.47;2.25;;;19.30;41.50;;;;;;1901542;74;21100;-56
2022/05/11 13:31:27;;;;;;;8.18;2.67;;;19.30;41.10;;;;;;1872639;75;21009;-56
2022/05/11 13:33:57;;;;;;;3.67;1.98;;;19.30;41.20;;;;;;1902190;75;21545;-56
2022/05/11 13:36:32;;;;;;;5.83;3.35;;;19.30;41.00;;;;;;1902222;75;21098;-56
2022/05/11 13:39:04;;;;;;;8.05;2.33;;;19.20;41.60;;;;;;1898117;75;21095;-56
2022/05/11 13:41:39;;;;;;;4.40;3.02;;;19.20;41.80;;;;;;1899629;75;21495;-56
2022/05/11 13:44:26;;;;;;;;;;;19.10;41.70;;;;;;1901059;75;21467;-56
2022/05/11 13:49:45;;;;;;;4.53;2.02;;;19.00;42.60;;;;;;1902232;75;21044;-56
2022/05/11 13:52:40;;;;;;;6.92;2.52;;;18.90;43.40;;;;;;1902181;75;21612;-56
2022/05/11 13:55:10;;;;;;;7.87;3.40;;;18.70;44.40;;;;;;1902392;75;21147;-56
2022/05/11 13:57:41;;;;;;;4.15;2.42;;;18.50;45.00;;;;;;1900346;75;21486;-56
2022/05/11 14:00:19;;;;;;;6.50;2.60;;;18.40;46.20;;;;;;1902052;75;21479;-56